createdAt,value
2018-09-14T00:01:09.735Z,8.23
2018-09-14T00:03:38.473Z,7.53
2018-09-14T00:06:07.515Z,7.73
2018-09-14T00:08:36.474Z,7.90
2018-09-14T00:11:05.123Z,7.80
2018-09-14T00:13:33.977Z,7.43
2018-09-14T00:16:02.869Z,7.33
2018-09-14T00:18:31.982Z,7.67
2018-09-14T00:21:01.043Z,7.37
2018-09-14T00:23:29.803Z,7.60
2018-09-14T00:25:58.645Z,6.77
2018-09-14T00:28:27.907Z,7.63
2018-09-14T00:30:56.647Z,8.20
2018-09-14T00:33:25.586Z,7.87
2018-09-14T00:35:54.308Z,8.33
2018-09-14T00:38:23.486Z,7.60
2018-09-14T00:40:52.291Z,7.67
2018-09-14T00:43:21.402Z,7.97
2018-09-14T00:45:50.355Z,7.73
2018-09-14T00:48:19.281Z,7.63
2018-09-14T00:50:48.036Z,8.37
2018-09-14T00:53:16.944Z,8.17
2018-09-14T00:55:45.683Z,8.70
2018-09-14T00:58:14.454Z,6.97
2018-09-14T01:00:43.166Z,7.60
2018-09-14T01:03:12.135Z,7.50
2018-09-14T01:05:40.960Z,7.60
2018-09-14T01:08:09.956Z,8.27
2018-09-14T01:10:38.921Z,8.10
2018-09-14T01:13:07.840Z,7.63
2018-09-14T01:15:36.731Z,7.57
2018-09-14T01:18:05.876Z,8.20
2018-09-14T01:20:35.143Z,7.13
2018-09-14T01:23:04.178Z,7.60
2018-09-14T01:25:33.075Z,6.93
2018-09-14T01:28:02.041Z,6.13
2018-09-14T01:30:30.742Z,6.70
2018-09-14T01:32:59.486Z,6.83
2018-09-14T01:35:33.342Z,6.87
2018-09-14T01:38:02.220Z,7.53
2018-09-14T01:40:31.099Z,6.63
2018-09-14T01:42:59.816Z,6.33
2018-09-14T01:45:28.910Z,6.60
2018-09-14T01:47:57.970Z,6.50
2018-09-14T01:50:27.066Z,6.70
2018-09-14T01:52:56.134Z,7.50
2018-09-14T01:55:24.818Z,8.23
2018-09-14T01:57:53.428Z,8.10
2018-09-14T02:00:22.095Z,7.83
2018-09-14T02:02:51.209Z,7.07
2018-09-14T02:05:20.029Z,6.97
2018-09-14T02:07:49.211Z,7.00
2018-09-14T02:10:22.042Z,7.73
2018-09-14T02:12:51.667Z,6.80
2018-09-14T02:15:20.564Z,6.90
2018-09-14T02:17:49.504Z,6.43
2018-09-14T02:20:19.524Z,6.20
2018-09-14T02:22:49.087Z,6.33
2018-09-14T02:25:17.826Z,6.77
2018-09-14T02:27:46.543Z,5.57
2018-09-14T02:30:15.244Z,6.27
2018-09-14T02:32:44.279Z,5.90
2018-09-14T02:35:13.350Z,5.27
2018-09-14T02:37:42.454Z,5.67
2018-09-14T02:40:11.321Z,5.50
2018-09-14T02:42:40.108Z,5.93
2018-09-14T02:45:09.107Z,5.80
2018-09-14T02:47:37.849Z,6.00
2018-09-14T02:50:06.856Z,6.23
2018-09-14T02:52:35.611Z,5.63
2018-09-14T02:55:04.834Z,6.87
2018-09-14T02:57:33.530Z,6.50
2018-09-14T03:00:02.323Z,9.50
2018-09-14T03:02:31.591Z,5.77
2018-09-14T03:05:00.375Z,5.87
2018-09-14T03:07:29.547Z,5.43
2018-09-14T03:09:58.575Z,6.23
2018-09-14T03:12:27.847Z,5.90
2018-09-14T03:14:56.650Z,6.20
2018-09-14T03:17:25.656Z,6.30
2018-09-14T03:19:54.650Z,6.90
2018-09-14T03:22:23.421Z,6.93
2018-09-14T03:24:52.204Z,6.97
2018-09-14T03:27:21.252Z,7.53
2018-09-14T03:29:50.397Z,7.13
2018-09-14T03:32:20.383Z,7.57
2018-09-14T03:34:49.258Z,9.37
2018-09-14T03:37:18.112Z,8.20
2018-09-14T03:39:47.221Z,7.10
2018-09-14T03:42:16.390Z,7.33
2018-09-14T03:44:45.471Z,8.23
2018-09-14T03:47:14.523Z,7.70
2018-09-14T03:49:43.251Z,8.27
2018-09-14T03:52:11.969Z,9.33
2018-09-14T03:54:41.107Z,10.80
2018-09-14T03:57:09.808Z,11.60
2018-09-14T03:59:39.255Z,12.87
2018-09-14T04:02:08.883Z,9.20
2018-09-14T04:04:37.694Z,10.17
2018-09-14T04:07:06.794Z,8.63
2018-09-14T04:09:36.014Z,8.93
2018-09-14T04:12:04.955Z,10.07
2018-09-14T04:14:34.064Z,9.23
2018-09-14T04:17:03.355Z,13.30
2018-09-14T04:19:31.992Z,12.27
2018-09-14T04:22:00.978Z,9.43
2018-09-14T04:24:30.104Z,12.83
2018-09-14T04:26:59.005Z,9.23
2018-09-14T04:29:28.083Z,8.20
2018-09-14T04:31:57.180Z,9.10
2018-09-14T04:34:26.099Z,11.10
2018-09-14T04:36:55.202Z,9.30
2018-09-14T04:39:24.210Z,9.77
2018-09-14T04:41:53.458Z,8.67
2018-09-14T04:44:22.171Z,10.20
2018-09-14T04:46:51.178Z,9.87
2018-09-14T04:49:19.838Z,8.47
2018-09-14T04:51:48.645Z,10.57
2018-09-14T04:54:17.968Z,9.80
2018-09-14T04:56:46.666Z,8.53
2018-09-14T04:59:15.314Z,7.33
2018-09-14T05:01:44.294Z,8.60
2018-09-14T05:04:12.981Z,7.93
2018-09-14T05:06:41.723Z,8.63
2018-09-14T05:09:10.835Z,9.90
2018-09-14T05:11:39.758Z,10.23
2018-09-14T05:14:08.608Z,9.80
2018-09-14T05:16:37.558Z,9.13
2018-09-14T05:19:06.842Z,10.67
2018-09-14T05:21:35.701Z,11.23
2018-09-14T05:24:04.998Z,11.33
2018-09-14T05:26:33.634Z,10.97
2018-09-14T05:29:02.291Z,10.50
2018-09-14T05:31:31.511Z,10.70
2018-09-14T05:34:00.295Z,11.30
2018-09-14T05:36:28.878Z,12.10
2018-09-14T05:38:57.984Z,10.93
2018-09-14T05:41:26.835Z,12.60
2018-09-14T05:43:55.658Z,11.43
2018-09-14T05:46:24.987Z,10.57
2018-09-14T05:48:53.927Z,9.90
2018-09-14T05:51:22.637Z,11.03
2018-09-14T05:53:51.563Z,10.13
2018-09-14T05:56:20.239Z,11.20
2018-09-14T05:58:49.329Z,14.83
2018-09-14T06:01:18.653Z,19.90
2018-09-14T06:03:47.522Z,19.77
2018-09-14T06:06:16.606Z,17.03
2018-09-14T06:08:45.919Z,17.20
2018-09-14T06:11:14.563Z,16.20
2018-09-14T06:13:43.603Z,14.33
2018-09-14T06:16:12.928Z,14.57
2018-09-14T06:18:42.094Z,13.10
2018-09-14T06:21:10.788Z,13.10
2018-09-14T06:23:39.781Z,14.27
2018-09-14T06:26:08.349Z,13.47
2018-09-14T06:28:40.834Z,13.93
2018-09-14T06:31:09.933Z,12.90
2018-09-14T06:33:38.955Z,15.93
2018-09-14T06:36:08.186Z,14.40
2018-09-14T06:38:37.141Z,15.90
2018-09-14T06:41:06.234Z,13.90
2018-09-14T06:43:35.802Z,12.93
2018-09-14T06:46:04.626Z,13.17
2018-09-14T06:48:33.295Z,12.83
2018-09-14T06:51:02.483Z,12.83
2018-09-14T06:53:31.187Z,14.33
2018-09-14T06:55:59.895Z,13.37
2018-09-14T06:58:29.497Z,13.87
2018-09-14T07:00:58.348Z,13.03
2018-09-14T07:03:27.067Z,12.50
2018-09-14T07:05:56.176Z,13.60
2018-09-14T07:08:25.055Z,15.03
2018-09-14T07:10:53.940Z,13.97
2018-09-14T07:13:22.868Z,15.33
2018-09-14T07:15:51.733Z,14.60
2018-09-14T07:18:20.873Z,14.80
2018-09-14T07:20:49.822Z,13.50
2018-09-14T07:23:18.483Z,15.17
2018-09-14T07:25:47.393Z,13.97
2018-09-14T07:28:16.356Z,14.37
2018-09-14T07:30:45.344Z,13.70
2018-09-14T07:33:13.971Z,12.73
2018-09-14T07:35:42.848Z,13.40
2018-09-14T07:38:11.946Z,12.10
2018-09-14T07:40:40.746Z,11.87
2018-09-14T07:43:09.874Z,8.00
2018-09-14T07:45:39.681Z,8.67
2018-09-14T07:48:08.585Z,7.80
2018-09-14T07:50:37.467Z,10.23
2018-09-14T07:53:06.169Z,10.53
2018-09-14T07:55:34.765Z,11.73
2018-09-14T07:58:04.091Z,13.40
2018-09-14T08:00:33.120Z,10.53
2018-09-14T08:03:02.096Z,15.57
2018-09-14T08:05:30.862Z,12.40
2018-09-14T08:07:59.523Z,14.93
2018-09-14T08:10:28.411Z,18.77
2018-09-14T08:12:57.056Z,12.90
2018-09-14T08:15:26.027Z,7.57
2018-09-14T08:17:55.115Z,7.20
2018-09-14T08:20:24.540Z,6.97
2018-09-14T08:22:53.227Z,7.53
2018-09-14T08:25:21.973Z,7.07
2018-09-14T08:27:50.815Z,7.23
2018-09-14T08:30:19.651Z,6.37
2018-09-14T08:32:48.682Z,7.80
2018-09-14T08:35:17.635Z,6.23
2018-09-14T08:37:46.416Z,6.80
2018-09-14T08:40:15.417Z,5.77
2018-09-14T08:42:45.192Z,6.70
2018-09-14T08:45:13.906Z,6.40
2018-09-14T08:47:42.929Z,7.07
2018-09-14T08:50:11.495Z,7.03
2018-09-14T08:52:40.302Z,5.77
2018-09-14T08:55:09.557Z,6.30
2018-09-14T09:12:01.859Z,6.70
2018-09-14T09:14:30.627Z,4.87
2018-09-14T09:16:59.443Z,5.78
2018-09-14T09:19:28.068Z,5.20
2018-09-14T09:21:56.929Z,5.20
2018-09-14T09:24:25.722Z,4.35
2018-09-14T09:26:54.902Z,5.03
2018-09-14T09:29:23.829Z,4.53
2018-09-14T09:31:52.815Z,4.30
2018-09-14T09:34:21.442Z,4.70
2018-09-14T09:36:50.370Z,6.22
2018-09-14T09:39:19.347Z,4.50
2018-09-14T09:41:48.047Z,4.58
2018-09-14T09:44:16.747Z,4.30
2018-09-14T09:46:45.621Z,4.87
2018-09-14T09:49:14.475Z,4.37
2018-09-14T09:51:43.714Z,3.75
2018-09-14T09:54:12.547Z,4.80
2018-09-14T09:56:41.810Z,4.72
2018-09-14T09:59:10.588Z,4.42
2018-09-14T10:01:47.380Z,3.83
2018-09-14T10:04:21.552Z,4.50
2018-09-14T10:06:50.661Z,4.97
2018-09-14T10:09:19.730Z,4.53
2018-09-14T10:11:48.672Z,3.83
2018-09-14T10:14:17.486Z,3.50
2018-09-14T10:16:46.057Z,3.60
2018-09-14T10:19:15.055Z,4.00
2018-09-14T10:21:43.691Z,4.03
2018-09-14T10:24:12.734Z,3.30
2018-09-14T10:26:41.685Z,3.95
2018-09-14T10:29:10.994Z,4.20
2018-09-14T10:31:39.966Z,3.60
2018-09-14T10:34:08.984Z,4.37
2018-09-14T10:36:37.812Z,4.30
2018-09-14T10:39:09.470Z,3.40
2018-09-14T10:41:38.214Z,3.70
2018-09-14T10:44:06.979Z,3.47
2018-09-14T10:46:35.758Z,3.37
2018-09-14T10:49:04.826Z,3.42
2018-09-14T10:51:34.022Z,3.27
2018-09-14T10:54:02.990Z,3.77
2018-09-14T10:56:32.378Z,3.92
2018-09-14T10:59:01.458Z,3.80
2018-09-14T11:01:30.263Z,3.90
2018-09-14T11:03:59.436Z,3.22
2018-09-14T11:06:28.481Z,4.22
2018-09-14T11:08:57.587Z,4.67
2018-09-14T11:11:26.270Z,3.72
2018-09-14T11:13:54.967Z,4.00
2018-09-14T11:16:23.854Z,3.87
2018-09-14T11:18:52.893Z,3.85
2018-09-14T11:21:21.645Z,4.08
2018-09-14T11:23:50.781Z,3.40
2018-09-14T11:26:19.730Z,3.20
2018-09-14T11:28:48.750Z,3.55
2018-09-14T11:31:17.767Z,3.20
2018-09-14T11:33:46.773Z,3.62
2018-09-14T11:36:15.891Z,3.77
2018-09-14T11:38:46.328Z,3.15
2018-09-14T11:41:15.163Z,4.30
2018-09-14T11:43:43.880Z,3.50
2018-09-14T11:46:12.988Z,3.12
2018-09-14T11:48:41.803Z,3.95
2018-09-14T11:51:10.808Z,5.15
2018-09-14T11:53:40.165Z,4.08
2018-09-14T11:56:09.011Z,4.05
2018-09-14T11:58:38.159Z,3.95
2018-09-14T12:01:06.958Z,4.22
2018-09-14T12:03:35.751Z,4.20
2018-09-14T12:06:04.362Z,4.47
2018-09-14T12:08:33.143Z,3.90
2018-09-14T12:11:02.069Z,3.50
2018-09-14T12:13:30.911Z,3.67
2018-09-14T12:15:59.858Z,3.92
2018-09-14T12:18:28.914Z,3.85
2018-09-14T12:20:58.117Z,4.62
2018-09-14T12:23:27.107Z,4.17
2018-09-14T12:25:56.126Z,4.80
2018-09-14T12:28:25.549Z,3.50
2018-09-14T12:30:54.403Z,3.45
2018-09-14T12:33:23.367Z,3.65
2018-09-14T12:35:52.319Z,3.37
2018-09-14T12:38:21.287Z,3.15
2018-09-14T12:40:50.339Z,4.42
2018-09-14T12:43:19.492Z,3.60
2018-09-14T12:45:48.439Z,3.35
2018-09-14T12:48:17.286Z,3.67
2018-09-14T12:50:46.219Z,4.50
2018-09-14T12:53:15.422Z,3.95
2018-09-14T12:55:44.539Z,5.95
2018-09-14T12:58:13.674Z,3.98
2018-09-14T13:00:42.635Z,5.28
2018-09-14T13:03:11.880Z,4.35
2018-09-14T13:05:40.793Z,6.20
2018-09-14T13:08:09.435Z,4.20
2018-09-14T13:10:38.178Z,4.92
2018-09-14T13:13:07.127Z,5.05
2018-09-14T13:15:36.386Z,5.10
2018-09-14T13:18:05.190Z,4.05
2018-09-14T13:20:33.927Z,4.40
2018-09-14T13:23:02.617Z,4.85
2018-09-14T13:25:31.370Z,3.90
2018-09-14T13:28:00.202Z,4.22
2018-09-14T13:30:29.383Z,4.47
2018-09-14T13:32:58.502Z,4.08
2018-09-14T13:35:27.293Z,4.03
2018-09-14T13:37:56.214Z,4.83
2018-09-14T13:40:25.404Z,4.67
2018-09-14T13:42:54.375Z,4.90
2018-09-14T13:45:23.095Z,4.35
2018-09-14T13:47:52.073Z,4.83
2018-09-14T13:50:20.930Z,6.00
2018-09-14T13:52:49.782Z,4.28
2018-09-14T13:55:18.486Z,4.25
2018-09-14T13:57:47.209Z,4.50
2018-09-14T14:00:16.319Z,4.37
2018-09-14T14:02:46.315Z,4.50
2018-09-14T14:05:15.663Z,3.60
2018-09-14T14:07:45.813Z,3.77
2018-09-14T14:10:14.698Z,3.80
2018-09-14T14:12:44.058Z,4.83
2018-09-14T14:15:12.787Z,4.30
2018-09-14T14:17:41.695Z,4.08
2018-09-14T14:20:10.735Z,3.35
2018-09-14T14:22:39.390Z,3.90
2018-09-14T14:25:08.136Z,4.17
2018-09-14T14:27:37.406Z,4.33
2018-09-14T14:30:06.577Z,3.87
2018-09-14T14:32:35.303Z,4.17
2018-09-14T14:35:04.821Z,3.60
2018-09-14T14:37:33.779Z,3.98
2018-09-14T14:40:02.762Z,3.60
2018-09-14T14:42:31.845Z,3.35
2018-09-14T14:45:00.834Z,3.10
2018-09-14T14:47:29.729Z,3.35
2018-09-14T14:49:58.344Z,4.17
2018-09-14T14:52:26.911Z,3.72
2018-09-14T14:54:56.333Z,3.85
2018-09-14T14:57:25.210Z,3.67
2018-09-14T14:59:54.111Z,2.90
2018-09-14T15:02:23.323Z,3.70
2018-09-14T15:04:52.123Z,4.42
2018-09-14T15:07:20.993Z,4.55
2018-09-14T15:09:50.078Z,4.87
2018-09-14T15:12:18.910Z,3.35
2018-09-14T15:14:47.975Z,4.10
2018-09-14T15:17:17.052Z,4.78
2018-09-14T15:19:45.703Z,4.22
2018-09-14T15:22:14.379Z,3.90
2018-09-14T15:24:43.862Z,6.33
2018-09-14T15:27:12.691Z,4.50
2018-09-14T15:29:41.637Z,5.67
2018-09-14T15:32:10.854Z,4.55
2018-09-14T15:34:39.827Z,5.17
2018-09-14T15:37:08.627Z,4.60
2018-09-14T15:39:37.737Z,5.72
2018-09-14T15:42:06.508Z,4.28
2018-09-14T15:44:35.228Z,5.10
2018-09-14T15:47:04.431Z,4.47
2018-09-14T15:49:33.352Z,4.42
2018-09-14T15:52:02.225Z,4.62
2018-09-14T15:54:31.491Z,5.37
2018-09-14T15:57:00.692Z,6.47
2018-09-14T15:59:29.331Z,6.17
2018-09-14T16:01:58.440Z,5.95
2018-09-14T16:04:27.187Z,5.67
2018-09-14T16:07:00.146Z,5.20
2018-09-14T16:09:29.127Z,6.80
2018-09-14T16:11:57.768Z,6.42
2018-09-14T16:14:26.459Z,6.55
2018-09-14T16:16:55.592Z,5.92
2018-09-14T16:19:24.910Z,7.00
2018-09-14T16:21:54.010Z,5.58
2018-09-14T16:24:23.098Z,4.45
2018-09-14T16:26:52.424Z,4.62
2018-09-14T16:29:21.369Z,5.42
2018-09-14T16:31:50.110Z,5.50
2018-09-14T16:34:18.756Z,5.62
2018-09-14T16:36:47.887Z,5.90
2018-09-14T16:39:16.879Z,5.25
2018-09-14T16:41:45.704Z,5.78
2018-09-14T16:44:14.570Z,5.60
2018-09-14T16:46:43.813Z,5.58
2018-09-14T16:49:12.842Z,5.37
2018-09-14T16:51:41.831Z,6.80
2018-09-14T16:54:10.419Z,5.77
2018-09-14T16:56:39.284Z,7.20
2018-09-14T16:59:08.755Z,5.90
2018-09-14T17:01:38.114Z,5.37
2018-09-14T17:04:07.240Z,6.30
2018-09-14T17:06:36.381Z,6.43
2018-09-14T17:09:07.798Z,7.53
2018-09-14T17:11:36.829Z,6.93
2018-09-14T17:14:06.370Z,6.47
2018-09-14T17:16:35.688Z,6.63
2018-09-14T17:19:04.731Z,6.97
2018-09-14T17:21:33.552Z,6.93
2018-09-14T17:24:02.699Z,7.63
2018-09-14T17:26:31.852Z,7.10
2018-09-14T17:29:01.050Z,11.17
2018-09-14T17:31:29.974Z,8.50
2018-09-14T17:33:59.032Z,9.13
2018-09-14T17:36:28.135Z,7.87
2018-09-14T17:38:57.123Z,8.30
2018-09-14T17:41:25.887Z,9.43
2018-09-14T17:43:54.618Z,12.83
2018-09-14T17:46:23.526Z,10.50
2018-09-14T17:48:52.559Z,14.53
2018-09-14T17:51:21.349Z,11.43
2018-09-14T17:53:50.591Z,10.90
2018-09-14T17:56:19.424Z,10.30
2018-09-14T17:58:48.418Z,9.17
2018-09-14T18:01:17.691Z,9.03
2018-09-14T18:03:46.893Z,7.87
2018-09-14T18:06:15.817Z,7.00
2018-09-14T18:08:44.878Z,7.07
2018-09-14T18:11:13.542Z,8.00
2018-09-14T18:13:42.273Z,6.77
2018-09-14T18:16:11.243Z,9.43
2018-09-14T18:18:40.423Z,5.63
2018-09-14T18:21:09.518Z,6.23
2018-09-14T18:23:38.411Z,7.03
2018-09-14T18:26:08.938Z,5.10
2018-09-14T18:28:38.089Z,10.03
2018-09-14T18:31:07.303Z,9.13
2018-09-14T18:33:36.800Z,6.80
2018-09-14T18:36:05.947Z,7.47
2018-09-14T18:38:34.538Z,9.23
2018-09-14T18:41:03.591Z,6.60
2018-09-14T18:43:32.431Z,6.33
2018-09-14T18:46:01.293Z,5.70
2018-09-14T18:48:30.512Z,6.10
2018-09-14T18:50:59.330Z,9.90
2018-09-14T18:53:28.651Z,5.53
2018-09-14T18:55:57.599Z,5.17
2018-09-14T18:58:26.512Z,6.07
2018-09-14T19:00:55.395Z,4.60
2018-09-14T19:03:24.171Z,5.10
2018-09-14T19:05:53.172Z,8.40
2018-09-14T19:08:22.322Z,5.60
2018-09-14T19:10:50.964Z,4.53
2018-09-14T19:13:19.544Z,4.33
2018-09-14T19:15:48.461Z,4.20
2018-09-14T19:18:17.587Z,5.50
2018-09-14T19:20:46.422Z,5.97
2018-09-14T19:23:15.553Z,5.10
2018-09-14T19:25:44.661Z,4.57
2018-09-14T19:28:13.751Z,4.70
2018-09-14T19:30:42.626Z,4.30
2018-09-14T19:33:11.451Z,5.70
2018-09-14T19:35:40.205Z,5.07
2018-09-14T19:38:08.850Z,7.67
2018-09-14T19:40:37.471Z,9.60
2018-09-14T19:43:06.368Z,6.83
2018-09-14T19:45:35.417Z,6.30
2018-09-14T19:48:04.350Z,6.23
2018-09-14T19:50:33.395Z,5.63
2018-09-14T19:53:02.639Z,4.87
2018-09-14T19:55:31.980Z,5.67
2018-09-14T19:58:00.741Z,6.17
2018-09-14T20:00:29.517Z,5.77
2018-09-14T20:02:58.628Z,5.77
2018-09-14T20:05:27.350Z,4.90
2018-09-14T20:07:56.053Z,4.50
2018-09-14T20:10:24.970Z,5.10
2018-09-14T20:12:53.892Z,5.10
2018-09-14T20:15:22.751Z,4.40
2018-09-14T20:17:51.934Z,4.43
2018-09-14T20:20:20.759Z,4.80
2018-09-14T20:22:49.396Z,4.37
2018-09-14T20:25:18.370Z,4.33
2018-09-14T20:27:47.343Z,4.13
2018-09-14T20:30:16.162Z,4.47
2018-09-14T20:32:45.259Z,5.33
2018-09-14T20:35:14.123Z,5.13
2018-09-14T20:37:43.159Z,4.40
2018-09-14T20:40:12.436Z,4.70
2018-09-14T20:42:41.513Z,4.60
2018-09-14T20:45:10.789Z,4.43
2018-09-14T20:47:39.842Z,4.20
2018-09-14T20:50:08.987Z,4.63
2018-09-14T20:52:38.077Z,4.47
2018-09-14T20:55:07.331Z,4.57
2018-09-14T20:57:36.343Z,5.40
2018-09-14T21:00:05.062Z,4.43
2018-09-14T21:02:34.284Z,4.27
2018-09-14T21:05:02.994Z,4.50
2018-09-14T21:07:31.597Z,4.73
2018-09-14T21:10:00.500Z,4.00
2018-09-14T21:12:29.375Z,4.80
2018-09-14T21:14:58.222Z,4.50
2018-09-14T21:17:27.250Z,4.53
2018-09-14T21:19:56.051Z,3.63
2018-09-14T21:22:25.004Z,4.07
2018-09-14T21:24:54.118Z,4.80
2018-09-14T21:27:23.062Z,4.13
2018-09-14T21:29:52.812Z,4.17
2018-09-14T21:32:21.679Z,5.43
2018-09-14T21:34:50.454Z,4.87
2018-09-14T21:37:19.119Z,5.03
2018-09-14T21:39:48.392Z,5.07
2018-09-14T21:42:17.539Z,4.80
2018-09-14T21:44:46.546Z,4.53
2018-09-14T21:47:16.302Z,4.57
2018-09-14T21:49:45.075Z,4.57
2018-09-14T21:52:14.370Z,5.07
2018-09-14T21:54:43.695Z,5.10
2018-09-14T21:57:12.807Z,4.77
2018-09-14T21:59:41.635Z,4.93
2018-09-14T22:02:10.970Z,4.70
2018-09-14T22:04:39.667Z,5.03
2018-09-14T22:07:08.949Z,5.97
2018-09-14T22:09:37.946Z,5.23
2018-09-14T22:12:06.729Z,4.90
2018-09-14T22:14:35.528Z,4.90
2018-09-14T22:17:04.797Z,4.80
2018-09-14T22:19:33.601Z,5.40
2018-09-14T22:22:02.313Z,5.33
2018-09-14T22:24:31.315Z,4.70
2018-09-14T22:27:00.318Z,5.13
2018-09-14T22:29:29.569Z,5.17
2018-09-14T22:31:58.312Z,4.47
2018-09-14T22:34:26.974Z,5.03
2018-09-14T22:36:55.850Z,5.77
2018-09-14T22:39:25.204Z,4.80
2018-09-14T22:41:54.026Z,5.13
2018-09-14T22:44:22.708Z,5.20
2018-09-14T22:46:51.906Z,5.27
2018-09-14T22:49:20.815Z,4.80
2018-09-14T22:51:49.747Z,5.10
2018-09-14T22:54:18.798Z,5.70
2018-09-14T22:56:47.803Z,5.00
2018-09-14T22:59:17.130Z,5.37
2018-09-14T23:01:45.840Z,5.53
2018-09-14T23:04:14.483Z,5.40
2018-09-14T23:06:43.401Z,5.57
2018-09-14T23:09:12.470Z,6.17
2018-09-14T23:11:41.261Z,5.40
2018-09-14T23:14:10.455Z,5.47
2018-09-14T23:16:39.194Z,5.50
2018-09-14T23:19:08.414Z,5.63
2018-09-14T23:21:37.798Z,5.73
2018-09-14T23:24:06.635Z,5.63
2018-09-14T23:26:35.438Z,5.73
2018-09-14T23:29:04.856Z,6.40
2018-09-14T23:31:33.489Z,6.73
2018-09-14T23:34:02.212Z,5.73
2018-09-14T23:36:31.379Z,6.00
2018-09-14T23:39:00.556Z,7.17
2018-09-14T23:41:29.290Z,6.20
2018-09-14T23:43:58.165Z,6.00
2018-09-14T23:46:27.221Z,5.73
2018-09-14T23:48:56.387Z,5.37
2018-09-14T23:51:25.198Z,6.27
2018-09-14T23:53:54.359Z,8.00
2018-09-14T23:56:23.478Z,8.23
2018-09-14T23:58:52.115Z,14.37
